메인 페이지
METAR-TAF:

METAR-TAF

공항 :

미니애폴리스 세인트폴 국제공항

미니애폴리스, 미네소타, 미국

위도: 44-52-59N, 경도: 093-13-44W, 고도: 256m

현재 날씨관측

예보는 46분 전, 02:04시(UTC)에 발표되었습니다.
7kt
온도 -3°C
습도 93%
기압 1012 hPa
시정: 6.4km
고도 900ft 상공 흐림
박무

METAR: KMSP 130204Z 19007KT 4SM BR OVC009 M03/M04 A2987 RMK AO2 T10281044

시각: 20:50 (02:50 UTC)

예보

예보는 3 시간 27분 전, 23:23시(UTC)에 발표되었습니다.
예보 대상 시간: 13일 00시부터 14일 06시까지 (UTC)
남남동4kt
시정: 6.4km
고도 900ft 상공 흐림
박무
13일 1200시부터 (UTC)
여러 방향의 바람 3kt
시정: 2.4km
고도 500ft 상공 흐림
박무
13일 1600시부터 (UTC)
5kt
시정: 1.6km
고도 900ft 상공 흐림
박무
일시적
13일 18시부터 13일 22시까지 (UTC)
약한소낙눈
13일 2200시부터 (UTC)
5kt
시정: 10km
고도 1200ft 상공 구름 많음
14일 0100시부터 (UTC)
서북서5kt
시정: 10km
고도 1500ft 상공 구름 보통

TAF: KMSP 122323Z 1300/1406 16004KT 4SM BR OVC009 FM131200 VRB03KT 1 1/2SM BR OVC005 FM131600 18005KT 6SM BR OVC009 TEMPO 1318/1322 -SHSN FM132200 28005KT P6SM BKN012 FM140100 29005KT P6SM SCT015

4,000개 이상의 공항 관측 자료 및 예보 (METAR 및 TAF 보고).

지도상에서 검색 가능한 기상관측소가 노란 점과 빨간 점으로 표시되어 있습니다.

기상관측소 명을 보려면 표시 위로 마우스를 이동하세요.

날씨 관측과 예보를 보려면 클릭하세요.

지도 변경 : 확대하려면 엑스 표시가 있는 녹색 버튼, 축소하려면 빼기 표시가 있는 녹색 버튼, 다음 페이지의 지도를 보려면 녹색 화살표를 클릭하세요.


METAR-TAF: